Wind From: 10-12-2017 19:04 Until: 11-12-2017 16:00 warning for: Wind Level: Orange info button

Power and phone distribution networks may be disrupted for relatively long periods., Roofs and chimneys can be damaged. , Tree branches may break. , Vehicles can be deported. , Traffic may be disrupted, particularly on secondary roads in forest areas. Limit your trips. , Limit your speed in highway driving, especially if you drive a vehicle or hitch sensitive to wind. , Do not go for walks in forests or along the coast., In town, be vigilant against possible falling objects., Do not work on roofs and do not touch any electrical line fallen on the ground., Store or secure sensitive objects to wind or likely to be damaged., Always install power generators outside buildings. 


Meteo18 Weather Cam more information Meteo18 Weather Cam


Thunder radar more information blitzortung!


Rain radar more information rain snow radar


Visit our other weather sites:

Template documentation
and downloads

And another site



Weather Underground History page Text

Daily Summary for September 28, 2017 Units:  Metric    English   Both
« Previous Day
Next Day »
Daily Weekly Monthly Yearly Custom
  High: Low: Average:
Temperature: 23.8 °C 11.8 °C 16.9 °C
Dew Point: 16.3 °C 11.2 °C 14 °C
Humidity: 97 % 60 % 85 %
Wind Speed: 12.9 km/h 0.0 km/h 1.8 km/h
Wind Gust: 16.1 km/h - -
Wind:- - SW
Pressure: 1024.6 hPa 1021.9 hPa -
Precipitation: 0.0 mm    
Historical Graphs
 
 
Tabular Data for September 28, 2017
Time Temperature Dew Point Pressure Wind Wind Speed Wind Gust Humidity Rainfall Rate (Hourly)
00:02 14.8 °C 13.3 °C 1021.9 hPa Calm   1.6 km/h 91 % 0.0 mm
00:12 14.7 °C 13.6 °C 1021.9 hPa Calm   1.6 km/h 93 % 0.0 mm
00:17 14.8 °C 13.7 °C 1021.9 hPa Calm   1.6 km/h 93 % 0.0 mm
00:22 14.9 °C 13.8 °C 1021.9 hPa Calm     93 % 0.0 mm
00:27 15.1 °C 14.0 °C 1021.9 hPa SE 1.6 km/h   93 % 0.0 mm
00:32 15.3 °C 14.0 °C 1021.9 hPa Calm   3.2 km/h 92 % 0.0 mm
00:42 15.1 °C 13.6 °C 1021.9 hPa Calm   3.2 km/h 91 % 0.0 mm
00:52 15.0 °C 13.5 °C 1022.2 hPa Calm     91 % 0.0 mm
00:57 14.7 °C 13.2 °C 1021.9 hPa SE 1.6 km/h 1.6 km/h 91 % 0.0 mm
01:02 14.8 °C 13.5 °C 1022.2 hPa SE 1.6 km/h 1.6 km/h 92 % 0.0 mm
01:12 14.8 °C 13.5 °C 1022.2 hPa SE 1.6 km/h 1.6 km/h 92 % 0.0 mm
01:17 14.8 °C 13.5 °C 1021.9 hPa SE 1.6 km/h 1.6 km/h 92 % 0.0 mm
01:22 14.7 °C 13.2 °C 1021.9 hPa Calm   1.6 km/h 91 % 0.0 mm
01:32 14.4 °C 13.1 °C 1022.2 hPa WNW 1.6 km/h 3.2 km/h 92 % 0.0 mm
01:42 14.3 °C 13.3 °C 1021.9 hPa Calm   3.2 km/h 94 % 0.0 mm
01:47 14.2 °C 13.1 °C 1022.2 hPa WNW 1.6 km/h 3.2 km/h 93 % 0.0 mm
01:52 14.0 °C 13.0 °C 1022.2 hPa WNW 1.6 km/h 3.2 km/h 94 % 0.0 mm
01:57 13.9 °C 12.9 °C 1022.2 hPa Calm   3.2 km/h 94 % 0.0 mm
02:02 13.8 °C 12.9 °C 1022.2 hPa Calm   3.2 km/h 94 % 0.0 mm
02:12 14.2 °C 13.4 °C 1022.2 hPa Calm   3.2 km/h 95 % 0.0 mm
02:17 13.9 °C 12.9 °C 1022.2 hPa Calm   1.6 km/h 94 % 0.0 mm
02:22 13.5 °C 12.6 °C 1022.2 hPa Calm   1.6 km/h 94 % 0.0 mm
02:27 13.4 °C 12.6 °C 1022.2 hPa Calm   1.6 km/h 95 % 0.0 mm
02:32 13.5 °C 12.7 °C 1022.2 hPa Calm   1.6 km/h 95 % 0.0 mm
02:37 13.7 °C 13.1 °C 1022.2 hPa Calm   1.6 km/h 96 % 0.0 mm
02:42 13.7 °C 12.9 °C 1022.2 hPa Calm   1.6 km/h 95 % 0.0 mm
02:47 13.4 °C 12.5 °C 1022.2 hPa Calm     94 % 0.0 mm
02:52 13.2 °C 12.4 °C 1022.2 hPa Calm     95 % 0.0 mm
02:57 13.2 °C 12.4 °C 1022.6 hPa Calm     95 % 0.0 mm
03:02 12.9 °C 12.1 °C 1022.2 hPa Calm     95 % 0.0 mm
03:12 12.9 °C 12.3 °C 1022.6 hPa Calm   1.6 km/h 96 % 0.0 mm
03:17 13.0 °C 12.4 °C 1022.2 hPa Calm     96 % 0.0 mm
03:22 12.9 °C 12.3 °C 1022.2 hPa Calm     96 % 0.0 mm
03:27 13.0 °C 12.4 °C 1022.2 hPa Calm     96 % 0.0 mm
03:32 12.8 °C 12.0 °C 1022.6 hPa Calm     95 % 0.0 mm
03:42 12.7 °C 12.1 °C 1022.2 hPa Calm     96 % 0.0 mm
03:47 12.8 °C 12.2 °C 1022.2 hPa Calm     96 % 0.0 mm
03:52 12.7 °C 12.1 °C 1022.2 hPa Calm     96 % 0.0 mm
03:57 12.4 °C 11.6 °C 1022.2 hPa Calm   1.6 km/h 95 % 0.0 mm
04:02 12.3 °C 11.7 °C 1022.2 hPa Calm   1.6 km/h 96 % 0.0 mm
04:12 12.5 °C 12.0 °C 1022.6 hPa Calm   1.6 km/h 97 % 0.0 mm
04:17 12.3 °C 11.7 °C 1022.6 hPa Calm     96 % 0.0 mm
04:22 12.2 °C 11.6 °C 1022.6 hPa Calm     96 % 0.0 mm
04:27 12.3 °C 11.7 °C 1022.6 hPa Calm     96 % 0.0 mm
04:32 12.5 °C 12.0 °C 1022.6 hPa Calm     97 % 0.0 mm
04:37 12.7 °C 12.2 °C 1022.9 hPa Calm     97 % 0.0 mm
04:42 12.7 °C 12.2 °C 1022.9 hPa Calm     97 % 0.0 mm
04:47 12.9 °C 12.4 °C 1022.9 hPa Calm     97 % 0.0 mm
04:52 13.0 °C 12.5 °C 1022.9 hPa Calm     97 % 0.0 mm
05:02 13.0 °C 12.5 °C 1022.9 hPa Calm     97 % 0.0 mm
05:12 12.9 °C 12.3 °C 1022.9 hPa Calm     96 % 0.0 mm
05:17 12.8 °C 12.2 °C 1022.9 hPa Calm     96 % 0.0 mm
05:22 12.7 °C 12.1 °C 1022.9 hPa Calm     96 % 0.0 mm
05:27 12.4 °C 11.8 °C 1022.9 hPa Calm     96 % 0.0 mm
05:32 12.1 °C 11.3 °C 1022.9 hPa Calm     95 % 0.0 mm
05:42 11.8 °C 11.2 °C 1022.9 hPa Calm     96 % 0.0 mm
05:47 11.9 °C 11.4 °C 1022.9 hPa Calm     97 % 0.0 mm
05:52 12.2 °C 11.7 °C 1022.9 hPa Calm     97 % 0.0 mm
05:57 12.3 °C 11.8 °C 1022.9 hPa Calm     97 % 0.0 mm
06:02 12.4 °C 11.9 °C 1022.9 hPa Calm     97 % 0.0 mm
06:12 12.6 °C 12.1 °C 1023.2 hPa Calm     97 % 0.0 mm
06:17 12.6 °C 12.1 °C 1023.2 hPa Calm     97 % 0.0 mm
06:22 12.6 °C 12.1 °C 1023.2 hPa Calm     97 % 0.0 mm
06:32 12.6 °C 12.1 °C 1023.2 hPa Calm     97 % 0.0 mm
06:37 12.6 °C 12.1 °C 1023.2 hPa Calm     97 % 0.0 mm
06:42 12.6 °C 12.1 °C 1023.2 hPa Calm     97 % 0.0 mm
06:52 12.4 °C 11.9 °C 1023.2 hPa Calm     97 % 0.0 mm
06:57 12.4 °C 11.9 °C 1023.2 hPa Calm     97 % 0.0 mm
07:02 12.4 °C 11.9 °C 1023.2 hPa Calm     97 % 0.0 mm
07:12 12.4 °C 11.9 °C 1023.2 hPa Calm     97 % 0.0 mm
07:17 12.4 °C 11.9 °C 1023.2 hPa Calm     97 % 0.0 mm
07:22 12.3 °C 11.8 °C 1023.2 hPa Calm     97 % 0.0 mm
07:32 12.4 °C 11.9 °C 1023.2 hPa Calm     97 % 0.0 mm
07:42 12.4 °C 11.9 °C 1023.6 hPa NNE 3.2 km/h   97 % 0.0 mm
07:47 12.3 °C 11.8 °C 1023.6 hPa NNE 1.6 km/h 3.2 km/h 97 % 0.0 mm
07:52 12.4 °C 11.9 °C 1023.6 hPa Calm   3.2 km/h 97 % 0.0 mm
08:02 12.3 °C 11.8 °C 1023.6 hPa Calm   3.2 km/h 97 % 0.0 mm
08:12 12.4 °C 11.9 °C 1023.6 hPa Calm   1.6 km/h 97 % 0.0 mm
08:17 12.3 °C 11.8 °C 1023.6 hPa Calm   1.6 km/h 97 % 0.0 mm
08:22 12.4 °C 11.9 °C 1023.6 hPa Calm   1.6 km/h 97 % 0.0 mm
08:32 12.4 °C 11.9 °C 1023.9 hPa Calm   1.6 km/h 97 % 0.0 mm
08:37 12.4 °C 11.9 °C 1023.9 hPa Calm     97 % 0.0 mm
08:42 12.5 °C 12.0 °C 1023.9 hPa Calm     97 % 0.0 mm
08:47 12.6 °C 12.1 °C 1023.9 hPa Calm     97 % 0.0 mm
08:52 12.7 °C 12.2 °C 1023.9 hPa Calm     97 % 0.0 mm
09:02 12.7 °C 12.2 °C 1023.9 hPa Calm   1.6 km/h 97 % 0.0 mm
09:12 12.8 °C 12.3 °C 1023.9 hPa Calm   1.6 km/h 97 % 0.0 mm
09:17 12.9 °C 12.4 °C 1024.3 hPa Calm   1.6 km/h 97 % 0.0 mm
09:22 13.1 °C 12.6 °C 1024.3 hPa Calm   1.6 km/h 97 % 0.0 mm
09:32 13.3 °C 12.8 °C 1024.3 hPa Calm   1.6 km/h 97 % 0.0 mm
09:37 13.3 °C 12.8 °C 1024.3 hPa Calm     97 % 0.0 mm
09:42 13.6 °C 13.1 °C 1024.3 hPa Calm     97 % 0.0 mm
09:52 13.9 °C 13.4 °C 1024.3 hPa Calm   1.6 km/h 97 % 0.0 mm
10:02 14.3 °C 13.8 °C 1024.3 hPa SW 1.6 km/h 1.6 km/h 97 % 0.0 mm
10:07 14.6 °C 14.1 °C 1024.3 hPa Calm   3.2 km/h 97 % 0.0 mm
10:12 14.6 °C 14.0 °C 1024.6 hPa SW 1.6 km/h 3.2 km/h 96 % 0.0 mm
10:17 14.8 °C 14.2 °C 1024.3 hPa Calm   6.4 km/h 96 % 0.0 mm
10:22 14.9 °C 14.1 °C 1024.3 hPa SW 1.6 km/h 6.4 km/h 95 % 0.0 mm
10:27 15.2 °C 14.4 °C 1024.6 hPa SW 1.6 km/h 6.4 km/h 95 % 0.0 mm
10:32 15.6 °C 14.6 °C 1024.3 hPa SSW 3.2 km/h 6.4 km/h 94 % 0.0 mm
10:42 15.9 °C 14.3 °C 1024.6 hPa SSW 1.6 km/h 4.8 km/h 90 % 0.0 mm
10:52 16.3 °C 14.3 °C 1024.3 hPa SSW 1.6 km/h 6.4 km/h 88 % 0.0 mm
11:02 16.8 °C 14.6 °C 1024.3 hPa SW 1.6 km/h 6.4 km/h 87 % 0.0 mm
11:12 17.1 °C 14.6 °C 1024.6 hPa SSW 4.8 km/h 6.4 km/h 85 % 0.0 mm
11:17 17.2 °C 14.5 °C 1024.6 hPa SE 1.6 km/h 6.4 km/h 84 % 0.0 mm
11:22 17.4 °C 14.5 °C 1024.6 hPa SW 8.0 km/h 8.0 km/h 83 % 0.0 mm
11:32 18.1 °C 15.0 °C 1024.3 hPa SSW 1.6 km/h 9.7 km/h 82 % 0.0 mm
11:42 18.4 °C 14.1 °C 1024.3 hPa WSW 9.7 km/h 9.7 km/h 76 % 0.0 mm
11:47 18.4 °C 14.1 °C 1024.3 hPa South 6.4 km/h 12.9 km/h 76 % 0.0 mm
11:52 18.6 °C 14.5 °C 1024.3 hPa SSW 6.4 km/h 12.9 km/h 77 % 0.0 mm
11:57 18.7 °C 14.4 °C 1024.3 hPa SSW 4.8 km/h 12.9 km/h 76 % 0.0 mm
12:02 18.9 °C 14.6 °C 1024.3 hPa SW 11.3 km/h 12.9 km/h 76 % 0.0 mm
12:12 19.2 °C 14.5 °C 1024.3 hPa SW 8.0 km/h 14.5 km/h 74 % 0.0 mm
12:17 19.1 °C 14.1 °C 1024.3 hPa SW 11.3 km/h 14.5 km/h 73 % 0.0 mm
12:22 19.2 °C 14.9 °C 1024.3 hPa WSW 4.8 km/h 14.5 km/h 76 % 0.0 mm
12:32 19.5 °C 14.7 °C 1024.3 hPa WSW 8.0 km/h 12.9 km/h 74 % 0.0 mm
12:42 19.8 °C 14.8 °C 1024.3 hPa West 4.8 km/h 12.9 km/h 73 % 0.0 mm
12:52 20.0 °C 15.2 °C 1024.3 hPa WSW 1.6 km/h 12.9 km/h 74 % 0.0 mm
12:57 20.1 °C 14.9 °C 1024.3 hPa Calm   9.7 km/h 72 % 0.0 mm
13:02 20.3 °C 15.1 °C 1024.3 hPa WNW 4.8 km/h 9.7 km/h 72 % 0.0 mm
13:07 20.6 °C 15.4 °C 1024.3 hPa SSW 6.4 km/h 9.7 km/h 72 % 0.0 mm
13:12 20.7 °C 15.3 °C 1024.3 hPa SW 3.2 km/h 12.9 km/h 71 % 0.0 mm
13:17 20.9 °C 15.0 °C 1024.3 hPa SW 8.0 km/h 12.9 km/h 69 % 0.0 mm
13:22 20.9 °C 14.8 °C 1024.3 hPa SW 6.4 km/h 14.5 km/h 68 % 0.0 mm
13:32 20.9 °C 15.2 °C 1023.9 hPa SSW 1.6 km/h 14.5 km/h 70 % 0.0 mm
13:37 20.9 °C 14.8 °C 1023.9 hPa SW 8.0 km/h 14.5 km/h 68 % 0.0 mm
13:42 20.8 °C 14.9 °C 1023.9 hPa SSW 6.4 km/h 14.5 km/h 69 % 0.0 mm
13:52 20.8 °C 15.3 °C 1023.9 hPa SW 3.2 km/h 14.5 km/h 71 % 0.0 mm
14:02 21.2 °C 15.3 °C 1023.9 hPa SSE 4.8 km/h 12.9 km/h 69 % 0.0 mm
14:12 21.4 °C 15.5 °C 1023.9 hPa SSW 6.4 km/h 12.9 km/h 69 % 0.0 mm
14:22 21.2 °C 15.1 °C 1023.9 hPa SW 4.8 km/h 12.9 km/h 68 % 0.0 mm
14:32 21.4 °C 15.5 °C 1023.9 hPa SW 6.4 km/h 12.9 km/h 69 % 0.0 mm
14:42 21.6 °C 15.2 °C 1023.9 hPa SW 3.2 km/h 16.1 km/h 67 % 0.0 mm
14:47 21.7 °C 15.3 °C 1023.9 hPa SSW 6.4 km/h 16.1 km/h 67 % 0.0 mm
14:52 21.9 °C 15.5 °C 1023.9 hPa SSW 3.2 km/h 14.5 km/h 67 % 0.0 mm
14:57 22.1 °C 15.9 °C 1023.9 hPa WSW 4.8 km/h 14.5 km/h 68 % 0.0 mm
15:02 22.4 °C 15.7 °C 1023.9 hPa South 4.8 km/h 12.9 km/h 66 % 0.0 mm
15:12 22.7 °C 16.3 °C 1023.9 hPa SSW 6.4 km/h 12.9 km/h 67 % 0.0 mm
15:17 22.7 °C 15.5 °C 1023.9 hPa WSW 11.3 km/h 12.9 km/h 64 % 0.0 mm
15:22 22.6 °C 15.2 °C 1023.9 hPa SSW 6.4 km/h 16.1 km/h 63 % 0.0 mm
15:27 22.6 °C 14.9 °C 1023.9 hPa SW 4.8 km/h 16.1 km/h 62 % 0.0 mm
15:32 22.4 °C 15.0 °C 1023.9 hPa SSW 11.3 km/h 16.1 km/h 63 % 0.0 mm
15:42 22.7 °C 15.5 °C 1023.9 hPa South 1.6 km/h 14.5 km/h 64 % 0.0 mm
15:52 22.9 °C 15.7 °C 1023.6 hPa SW 4.8 km/h 14.5 km/h 64 % 0.0 mm
15:57 22.9 °C 15.5 °C 1023.6 hPa South 4.8 km/h 9.7 km/h 63 % 0.0 mm
16:02 22.8 °C 15.4 °C 1023.6 hPa SW 3.2 km/h 9.7 km/h 63 % 0.0 mm
16:07 22.9 °C 15.7 °C 1023.6 hPa SSE 6.4 km/h 12.9 km/h 64 % 0.0 mm
16:12 22.9 °C 15.7 °C 1023.6 hPa SSW 8.0 km/h 12.9 km/h 64 % 0.0 mm
16:17 22.9 °C 15.5 °C 1023.6 hPa Calm   12.9 km/h 63 % 0.0 mm
16:22 22.9 °C 15.5 °C 1023.6 hPa WSW 3.2 km/h 12.9 km/h 63 % 0.0 mm
16:27 22.8 °C 15.4 °C 1023.6 hPa WSW 6.4 km/h 12.9 km/h 63 % 0.0 mm
16:32 22.9 °C 15.5 °C 1023.6 hPa SE 3.2 km/h 12.9 km/h 63 % 0.0 mm
16:37 23.1 °C 15.7 °C 1023.6 hPa SSW 12.9 km/h 16.1 km/h 63 % 0.0 mm
16:42 23.1 °C 15.7 °C 1023.2 hPa WSW 4.8 km/h 16.1 km/h 63 % 0.0 mm
16:47 23.2 °C 15.3 °C 1023.2 hPa SW 9.7 km/h 16.1 km/h 61 % 0.0 mm
17:02 22.8 °C 15.4 °C 1023.2 hPa West 4.8 km/h 16.1 km/h 63 % 0.0 mm
17:12 23.0 °C 15.8 °C 1023.6 hPa SW 1.6 km/h 16.1 km/h 64 % 0.0 mm
17:17 23.1 °C 15.7 °C 1023.2 hPa WSW 1.6 km/h 12.9 km/h 63 % 0.0 mm
17:22 23.3 °C 15.9 °C 1023.2 hPa WSW 4.8 km/h 8.0 km/h 63 % 0.0 mm
17:27 23.3 °C 15.9 °C 1023.2 hPa SW 6.4 km/h 6.4 km/h 63 % 0.0 mm
17:32 23.2 °C 15.5 °C 1023.2 hPa SW 3.2 km/h 9.7 km/h 62 % 0.0 mm
17:42 23.5 °C 15.5 °C 1023.6 hPa SSW 1.6 km/h 11.3 km/h 61 % 0.0 mm
17:47 23.5 °C 15.8 °C 1023.6 hPa Calm   9.7 km/h 62 % 0.0 mm
17:57 23.8 °C 15.8 °C 1023.6 hPa WSW 4.8 km/h 6.4 km/h 61 % 0.0 mm
18:02 23.7 °C 15.7 °C 1023.6 hPa SSW 1.6 km/h 6.4 km/h 61 % 0.0 mm
18:07 23.7 °C 15.5 °C 1023.6 hPa SSW 1.6 km/h 6.4 km/h 60 % 0.0 mm
18:17 23.3 °C 15.4 °C 1023.6 hPa SW 3.2 km/h 8.0 km/h 61 % 0.0 mm
18:22 23.1 °C 15.2 °C 1023.6 hPa WSW 4.8 km/h 8.0 km/h 61 % 0.0 mm
18:27 22.9 °C 15.7 °C 1023.6 hPa SW 1.6 km/h 8.0 km/h 64 % 0.0 mm
18:32 22.8 °C 15.9 °C 1023.2 hPa Calm   6.4 km/h 65 % 0.0 mm
18:37 22.6 °C 15.9 °C 1023.2 hPa WSW 1.6 km/h 6.4 km/h 66 % 0.0 mm
18:42 22.4 °C 15.5 °C 1023.2 hPa SW 3.2 km/h 3.2 km/h 65 % 0.0 mm
18:52 22.1 °C 15.7 °C 1023.6 hPa Calm   4.8 km/h 67 % 0.0 mm
18:57 21.9 °C 15.7 °C 1023.2 hPa Calm   3.2 km/h 68 % 0.0 mm
19:02 21.7 °C 15.5 °C 1023.6 hPa Calm   3.2 km/h 68 % 0.0 mm
19:12 21.3 °C 15.8 °C 1023.6 hPa Calm   1.6 km/h 71 % 0.0 mm
19:17 21.1 °C 15.6 °C 1023.6 hPa Calm     71 % 0.0 mm
19:22 20.8 °C 15.8 °C 1023.6 hPa Calm     73 % 0.0 mm
19:32 20.1 °C 15.7 °C 1023.6 hPa WNW 1.6 km/h   76 % 0.0 mm
19:37 19.7 °C 15.3 °C 1023.6 hPa Calm   1.6 km/h 76 % 0.0 mm
19:42 19.6 °C 15.5 °C 1023.6 hPa Calm   1.6 km/h 77 % 0.0 mm
19:47 19.3 °C 15.4 °C 1023.6 hPa WNW 1.6 km/h 1.6 km/h 78 % 0.0 mm
19:52 19.2 °C 15.7 °C 1023.6 hPa Calm   1.6 km/h 80 % 0.0 mm
19:57 19.1 °C 15.8 °C 1023.6 hPa Calm   1.6 km/h 81 % 0.0 mm
20:02 19.0 °C 15.7 °C 1023.6 hPa Calm   1.6 km/h 81 % 0.0 mm
20:12 18.9 °C 15.6 °C 1023.6 hPa Calm   1.6 km/h 81 % 0.0 mm
20:17 18.8 °C 15.7 °C 1023.6 hPa Calm   1.6 km/h 82 % 0.0 mm
20:22 18.6 °C 15.8 °C 1023.6 hPa Calm   1.6 km/h 84 % 0.0 mm
20:27 18.4 °C 15.6 °C 1023.6 hPa Calm   1.6 km/h 84 % 0.0 mm
20:32 18.2 °C 15.5 °C 1023.6 hPa Calm   1.6 km/h 84 % 0.0 mm
20:42 18.2 °C 15.6 °C 1023.6 hPa Calm   1.6 km/h 85 % 0.0 mm
20:52 18.0 °C 15.4 °C 1023.9 hPa North 1.6 km/h 3.2 km/h 85 % 0.0 mm
20:57 17.9 °C 15.5 °C 1023.9 hPa Calm   3.2 km/h 86 % 0.0 mm
21:02 17.8 °C 15.4 °C 1023.9 hPa Calm   3.2 km/h 86 % 0.0 mm
21:12 17.6 °C 15.4 °C 1023.9 hPa Calm   1.6 km/h 87 % 0.0 mm
21:17 17.6 °C 15.2 °C 1023.9 hPa Calm   1.6 km/h 86 % 0.0 mm
21:22 17.7 °C 15.3 °C 1023.9 hPa Calm   1.6 km/h 86 % 0.0 mm
21:32 17.3 °C 15.1 °C 1023.9 hPa Calm   3.2 km/h 87 % 0.0 mm
21:37 17.2 °C 15.0 °C 1023.9 hPa Calm   3.2 km/h 87 % 0.0 mm
21:42 17.2 °C 15.2 °C 1023.9 hPa NNW 1.6 km/h 3.2 km/h 88 % 0.0 mm
21:47 17.2 °C 15.2 °C 1023.9 hPa Calm   1.6 km/h 88 % 0.0 mm
21:52 17.1 °C 15.1 °C 1023.9 hPa Calm   1.6 km/h 88 % 0.0 mm
22:02 16.8 °C 15.0 °C 1023.9 hPa Calm   1.6 km/h 89 % 0.0 mm
22:12 16.8 °C 15.1 °C 1023.9 hPa North 1.6 km/h 1.6 km/h 90 % 0.0 mm
22:17 16.7 °C 15.1 °C 1023.9 hPa Calm   1.6 km/h 90 % 0.0 mm
22:22 16.6 °C 15.0 °C 1023.9 hPa Calm   3.2 km/h 90 % 0.0 mm
22:32 16.5 °C 15.0 °C 1023.9 hPa North 1.6 km/h 3.2 km/h 91 % 0.0 mm
22:37 16.5 °C 14.9 °C 1023.9 hPa Calm   3.2 km/h 90 % 0.0 mm
22:42 16.4 °C 14.8 °C 1023.9 hPa Calm   3.2 km/h 90 % 0.0 mm
22:47 16.2 °C 14.6 °C 1023.9 hPa Calm   3.2 km/h 90 % 0.0 mm
22:52 16.1 °C 14.6 °C 1023.9 hPa Calm   1.6 km/h 91 % 0.0 mm
22:57 16.1 °C 14.6 °C 1023.9 hPa Calm     91 % 0.0 mm
23:02 15.9 °C 14.4 °C 1023.9 hPa Calm     91 % 0.0 mm
23:07 15.7 °C 14.2 °C 1023.9 hPa Calm     91 % 0.0 mm
23:12 15.6 °C 14.3 °C 1023.9 hPa Calm     92 % 0.0 mm
23:17 15.6 °C 14.5 °C 1023.9 hPa WNW 1.6 km/h 1.6 km/h 93 % 0.0 mm
23:22 15.6 °C 14.5 °C 1023.9 hPa NW 1.6 km/h 1.6 km/h 93 % 0.0 mm
23:27 15.7 °C 14.6 °C 1023.9 hPa North 1.6 km/h 1.6 km/h 93 % 0.0 mm
23:32 15.7 °C 14.6 °C 1023.9 hPa Calm   3.2 km/h 93 % 0.0 mm
23:37 15.6 °C 14.5 °C 1023.9 hPa NNE 1.6 km/h 3.2 km/h 93 % 0.0 mm
23:42 15.5 °C 14.4 °C 1023.9 hPa North 1.6 km/h 3.2 km/h 93 % 0.0 mm
23:52 15.3 °C 14.2 °C 1023.6 hPa Calm   3.2 km/h 93 % 0.0 mm
23:57 15.3 °C 14.2 °C 1023.6 hPa Calm   3.2 km/h 93 % 0.0 mm
Meteo18
Compliments of Weather Underground - 4 mb

Script developed by  Jim McMurry - jmcmurry@mwt.net Adapted for the template by  Wim van der Kuil - Leuven-Template.eu

You find our weather info also at:

European Weather Network

Weather Underground

Equipment we use:

Weather-station
Davis Vue

Weather-program
Meteohub

Weather-server
Raspberry PI 2 B+

Provider
1 and 1

Davis Vue

Meteohub

Raspberry PI 2 B+

1 and 1